Bridgewater, South Dakota
Current Conditions -  °F | °C
As of 12:53 PM on Thursday 23 Oct 2014 (Local Time) from KMHE Reporting Station
Clear Clear  
Wind Chill: 68°   Ceiling: Unl
Heat Index: 68°   Visibility: 10mi
Dew Point: 49°   Wind: 9mph
Humidity: 50%   Direction: 200°SSW
Pressure: 30"   Gusts: NA
Location:  43.55°N, 97.51°W
Report Text: KMHE 231753Z AUTO 20008KT 10SM CLR 20/09 A3000 RMK AO2 SLP157 T02000094 10200 20033 58012 $
Loading
Personal Weather Stations






























Interactive Weather Map
Tropical Storm Tracking
New forecast layout! Learn more

10-Day Weather Forecast

Advertisements
Track Severe Weather on mobile